Time,TemperatureF,DewpointF,PressureIn,WindDirection,WindDirectionDegrees,WindSpeedMPH,WindSpeedGustMPH,Humidity,HourlyPrecipIn,Conditions,Clouds,dailyrainin,SoftwareType,DateUTC
2013-05-01 00:09:00,58.3,54.0,30.23,ESE,109,3.0,7.0,85,0.00,,,0.00,weatherlink.com 1.10,2013-05-01 04:09:00,
2013-05-01 00:24:00,58.0,54.0,30.23,ESE,112,3.0,7.0,87,0.00,,,0.00,weatherlink.com 1.10,2013-05-01 04:24:00,
2013-05-01 00:39:00,57.8,54.0,30.23,East,98,3.0,7.0,87,0.00,,,0.00,weatherlink.com 1.10,2013-05-01 04:39:00,
2013-05-01 00:54:00,57.7,54.0,30.23,East,97,6.0,8.0,88,0.00,,,0.00,weatherlink.com 1.10,2013-05-01 04:54:00,
2013-05-01 01:09:00,57.5,54.0,30.24,East,92,6.0,9.0,88,0.00,,,0.00,weatherlink.com 1.10,2013-05-01 05:09:00,
2013-05-01 01:24:00,57.3,54.0,30.24,ESE,107,2.0,7.0,88,0.00,,,0.00,weatherlink.com 1.10,2013-05-01 05:24:00,
2013-05-01 01:39:00,57.1,53.0,30.23,East,101,0.0,8.0,87,0.00,,,0.00,weatherlink.com 1.10,2013-05-01 05:39:00,
2013-05-01 01:54:00,56.8,53.0,30.23,ESE,119,2.0,9.0,88,0.00,,,0.00,weatherlink.com 1.10,2013-05-01 05:54:00,
2013-05-01 02:09:00,56.6,53.0,30.23,ESE,105,2.0,6.0,88,0.00,,,0.00,weatherlink.com 1.10,2013-05-01 06:09:00,
2013-05-01 02:24:00,56.6,53.0,30.23,ESE,108,2.0,5.0,88,0.00,,,0.00,weatherlink.com 1.10,2013-05-01 06:24:00,
2013-05-01 02:39:00,56.5,53.0,30.23,ESE,107,1.0,5.0,89,0.00,,,0.00,weatherlink.com 1.10,2013-05-01 06:39:00,
2013-05-01 02:54:00,56.4,53.0,30.23,ENE,75,0.0,3.0,89,0.00,,,0.00,weatherlink.com 1.10,2013-05-01 06:54:00,
2013-05-01 03:09:00,56.2,53.0,30.23,East,96,5.0,7.0,88,0.00,,,0.00,weatherlink.com 1.10,2013-05-01 07:09:00,
2013-05-01 03:24:00,55.9,52.0,30.23,SSE,150,2.0,8.0,87,0.00,,,0.00,weatherlink.com 1.10,2013-05-01 07:24:00,
2013-05-01 03:39:00,55.8,52.0,30.23,SE,134,5.0,7.0,87,0.00,,,0.00,weatherlink.com 1.10,2013-05-01 07:39:00,
2013-05-01 03:54:00,55.7,52.0,30.23,East,79,1.0,5.0,88,0.00,,,0.00,weatherlink.com 1.10,2013-05-01 07:54:00,
2013-05-01 04:09:00,55.5,52.0,30.23,ESE,106,1.0,3.0,88,0.00,,,0.00,weatherlink.com 1.10,2013-05-01 08:09:00,
2013-05-01 04:24:00,55.4,52.0,30.23,East,100,1.0,5.0,88,0.00,,,0.00,weatherlink.com 1.10,2013-05-01 08:24:00,
2013-05-01 04:39:00,55.3,51.0,30.23,SE,135,1.0,5.0,86,0.00,,,0.00,weatherlink.com 1.10,2013-05-01 08:39:00,
2013-05-01 04:54:00,54.9,51.0,30.22,ESE,104,2.0,4.0,86,0.00,,,0.00,weatherlink.com 1.10,2013-05-01 08:54:00,
2013-05-01 05:09:00,54.7,51.0,30.23,ESE,120,3.0,6.0,87,0.00,,,0.00,weatherlink.com 1.10,2013-05-01 09:09:00,
2013-05-01 05:24:00,54.5,51.0,30.22,SE,129,2.0,5.0,87,0.00,,,0.00,weatherlink.com 1.10,2013-05-01 09:24:00,
2013-05-01 05:39:00,54.3,51.0,30.22,ESE,118,3.0,8.0,88,0.00,,,0.00,weatherlink.com 1.10,2013-05-01 09:39:00,
2013-05-01 05:54:00,54.3,51.0,30.23,ESE,111,4.0,7.0,88,0.00,,,0.00,weatherlink.com 1.10,2013-05-01 09:54:00,
2013-05-01 06:09:00,54.2,51.0,30.23,ESE,103,2.0,7.0,88,0.00,,,0.00,weatherlink.com 1.10,2013-05-01 10:09:00,
2013-05-01 06:24:00,54.2,51.0,30.24,East,101,3.0,6.0,88,0.00,,,0.00,weatherlink.com 1.10,2013-05-01 10:24:00,
2013-05-01 06:39:00,54.2,51.0,30.25,ESE,103,2.0,5.0,89,0.00,,,0.00,weatherlink.com 1.10,2013-05-01 10:39:00,
2013-05-01 06:54:00,54.2,51.0,30.25,SE,128,7.0,8.0,89,0.00,,,0.00,weatherlink.com 1.10,2013-05-01 10:54:00,
2013-05-01 07:09:00,54.1,51.0,30.26,ESE,116,3.0,6.0,88,0.00,,,0.00,weatherlink.com 1.10,2013-05-01 11:09:00,
2013-05-01 07:24:00,54.1,50.0,30.26,East,99,2.0,8.0,87,0.00,,,0.00,weatherlink.com 1.10,2013-05-01 11:24:00,
2013-05-01 07:39:00,54.1,50.0,30.26,ESE,117,4.0,7.0,87,0.00,,,0.00,weatherlink.com 1.10,2013-05-01 11:39:00,
2013-05-01 07:54:00,54.2,51.0,30.27,East,88,1.0,7.0,87,0.00,,,0.00,weatherlink.com 1.10,2013-05-01 11:54:00,
2013-05-01 08:09:00,54.3,51.0,30.27,ESE,113,3.0,3.0,87,0.00,,,0.00,weatherlink.com 1.10,2013-05-01 12:09:00,
2013-05-01 08:24:00,54.2,51.0,30.28,NE,56,0.0,5.0,88,0.00,,,0.00,weatherlink.com 1.10,2013-05-01 12:24:00,
2013-05-01 08:39:00,54.0,51.0,30.29,East,84,1.0,3.0,89,0.00,,,0.00,weatherlink.com 1.10,2013-05-01 12:39:00,
2013-05-01 08:55:00,53.9,51.0,30.29,ESE,118,0.0,6.0,89,0.00,,,0.00,weatherlink.com 1.10,2013-05-01 12:55:00,
2013-05-01 09:10:00,54.2,51.0,30.29,WNW,303,0.0,7.0,88,0.00,,,0.00,weatherlink.com 1.10,2013-05-01 13:10:00,
2013-05-01 09:25:00,54.1,51.0,30.29,ESE,114,7.0,8.0,88,0.00,,,0.00,weatherlink.com 1.10,2013-05-01 13:25:00,
2013-05-01 09:40:00,54.1,51.0,30.30,East,91,3.0,11.0,88,0.00,,,0.00,weatherlink.com 1.10,2013-05-01 13:40:00,
2013-05-01 09:55:00,54.3,51.0,30.30,WNW,291,2.0,9.0,87,0.00,,,0.00,weatherlink.com 1.10,2013-05-01 13:55:00,
2013-05-01 10:10:00,54.5,51.0,30.31,East,98,1.0,6.0,87,0.00,,,0.00,weatherlink.com 1.10,2013-05-01 14:10:00,
2013-05-01 10:25:00,54.9,51.0,30.31,ESE,109,1.0,12.0,85,0.00,,,0.00,weatherlink.com 1.10,2013-05-01 14:25:00,
2013-05-01 10:40:00,55.0,50.0,30.32,East,97,2.0,7.0,84,0.00,,,0.00,weatherlink.com 1.10,2013-05-01 14:40:00,
2013-05-01 10:55:00,55.5,51.0,30.33,East,95,0.0,3.0,86,0.00,,,0.00,weatherlink.com 1.10,2013-05-01 14:55:00,
2013-05-01 11:10:00,56.2,51.0,30.33,NW,305,2.0,6.0,82,0.00,,,0.00,weatherlink.com 1.10,2013-05-01 15:10:00,
2013-05-01 11:25:00,56.3,51.0,30.32,ENE,76,5.0,13.0,82,0.00,,,0.00,weatherlink.com 1.10,2013-05-01 15:25:00,
2013-05-01 11:40:00,55.7,51.0,30.33,ENE,67,1.0,8.0,84,0.00,,,0.00,weatherlink.com 1.10,2013-05-01 15:40:00,
2013-05-01 11:55:00,56.8,52.0,30.32,East,97,1.0,5.0,83,0.00,,,0.00,weatherlink.com 1.10,2013-05-01 15:55:00,
2013-05-01 12:10:00,58.3,51.0,30.32,ESE,104,3.0,9.0,77,0.00,,,0.00,weatherlink.com 1.10,2013-05-01 16:10:00,
2013-05-01 12:25:00,58.9,51.0,30.31,East,90,3.0,10.0,75,0.00,,,0.00,weatherlink.com 1.10,2013-05-01 16:25:00,
2013-05-01 12:40:00,59.9,51.0,30.30,ESE,106,2.0,9.0,73,0.00,,,0.00,weatherlink.com 1.10,2013-05-01 16:40:00,
2013-05-01 12:55:00,60.0,52.0,30.30,NE,54,2.0,7.0,74,0.00,,,0.00,weatherlink.com 1.10,2013-05-01 16:55:00,
2013-05-01 13:10:00,60.9,51.0,30.29,East,88,5.0,11.0,71,0.00,,,0.00,weatherlink.com 1.10,2013-05-01 17:10:00,
2013-05-01 13:25:00,60.8,52.0,30.29,SE,142,3.0,9.0,72,0.00,,,0.00,weatherlink.com 1.10,2013-05-01 17:25:00,
2013-05-01 13:40:00,60.1,51.0,30.29,NW,315,1.0,9.0,73,0.00,,,0.00,weatherlink.com 1.10,2013-05-01 17:40:00,
2013-05-01 13:55:00,59.7,51.0,30.30,East,100,6.0,13.0,74,0.00,,,0.00,weatherlink.com 1.10,2013-05-01 17:55:00,
2013-05-01 14:10:00,59.6,52.0,30.30,East,81,0.0,9.0,76,0.00,,,0.00,weatherlink.com 1.10,2013-05-01 18:10:00,
2013-05-01 14:25:00,59.6,52.0,30.30,East,93,6.0,10.0,76,0.00,,,0.00,weatherlink.com 1.10,2013-05-01 18:25:00,
2013-05-01 14:40:00,59.5,52.0,30.30,East,100,2.0,8.0,75,0.00,,,0.00,weatherlink.com 1.10,2013-05-01 18:40:00,
2013-05-01 14:55:00,59.6,52.0,30.31,SE,132,6.0,8.0,76,0.00,,,0.00,weatherlink.com 1.10,2013-05-01 18:55:00,
2013-05-01 15:10:00,60.1,52.0,30.31,East,95,2.0,7.0,75,0.00,,,0.00,weatherlink.com 1.10,2013-05-01 19:10:00,
2013-05-01 15:25:00,60.4,52.0,30.30,East,99,3.0,10.0,74,0.00,,,0.00,weatherlink.com 1.10,2013-05-01 19:25:00,
2013-05-01 15:40:00,60.0,52.0,30.30,SE,126,6.0,8.0,75,0.00,,,0.00,weatherlink.com 1.10,2013-05-01 19:40:00,
2013-05-01 15:55:00,60.4,53.0,30.29,East,88,0.0,9.0,76,0.00,,,0.00,weatherlink.com 1.10,2013-05-01 19:55:00,
2013-05-01 16:10:00,61.7,54.0,30.29,NW,313,3.0,5.0,75,0.00,,,0.00,weatherlink.com 1.10,2013-05-01 20:10:00,
2013-05-01 16:25:00,61.3,52.0,30.29,ESE,105,5.0,10.0,72,0.00,,,0.00,weatherlink.com 1.10,2013-05-01 20:25:00,
2013-05-01 16:40:00,60.7,52.0,30.29,East,79,1.0,9.0,74,0.00,,,0.00,weatherlink.com 1.10,2013-05-01 20:40:00,
2013-05-01 16:55:00,60.8,52.0,30.29,ESE,110,0.0,5.0,74,0.00,,,0.00,weatherlink.com 1.10,2013-05-01 20:55:00,
2013-05-01 17:10:00,60.3,52.0,30.29,ESE,103,4.0,10.0,74,0.00,,,0.00,weatherlink.com 1.10,2013-05-01 21:10:00,
2013-05-01 17:25:00,60.0,52.0,30.29,ESE,116,1.0,9.0,76,0.00,,,0.00,weatherlink.com 1.10,2013-05-01 21:25:00,
2013-05-01 17:40:00,59.6,52.0,30.28,East,91,3.0,11.0,75,0.00,,,0.00,weatherlink.com 1.10,2013-05-01 21:40:00,
2013-05-01 17:55:00,59.4,52.0,30.29,ESE,105,8.0,12.0,77,0.00,,,0.00,weatherlink.com 1.10,2013-05-01 21:55:00,
2013-05-01 18:10:00,59.5,52.0,30.29,East,95,2.0,8.0,77,0.00,,,0.00,weatherlink.com 1.10,2013-05-01 22:10:00,
2013-05-01 18:25:00,59.2,52.0,30.29,ESE,104,3.0,9.0,78,0.00,,,0.00,weatherlink.com 1.10,2013-05-01 22:25:00,
2013-05-01 18:40:00,58.9,52.0,30.29,East,99,2.0,7.0,78,0.00,,,0.00,weatherlink.com 1.10,2013-05-01 22:40:00,
2013-05-01 18:55:00,58.3,53.0,30.29,East,84,0.0,8.0,81,0.00,,,0.00,weatherlink.com 1.10,2013-05-01 22:55:00,
2013-05-01 19:10:00,58.1,53.0,30.28,ESE,111,2.0,7.0,83,0.00,,,0.00,weatherlink.com 1.10,2013-05-01 23:10:00,
2013-05-01 19:25:00,58.0,53.0,30.29,ESE,107,3.0,5.0,83,0.00,,,0.00,weatherlink.com 1.10,2013-05-01 23:25:00,
2013-05-01 19:40:00,57.7,53.0,30.29,East,101,9.0,9.0,84,0.00,,,0.00,weatherlink.com 1.10,2013-05-01 23:40:00,
2013-05-01 19:55:00,57.4,53.0,30.29,East,101,6.0,10.0,84,0.00,,,0.00,weatherlink.com 1.10,2013-05-01 23:55:00,
2013-05-01 20:10:00,57.0,53.0,30.29,East,101,6.0,11.0,85,0.00,,,0.00,weatherlink.com 1.10,2013-05-02 00:10:00,
2013-05-01 20:25:00,56.8,53.0,30.29,SE,126,9.0,11.0,86,0.00,,,0.00,weatherlink.com 1.10,2013-05-02 00:25:00,
2013-05-01 20:40:00,56.4,53.0,30.29,ESE,106,4.0,11.0,87,0.00,,,0.00,weatherlink.com 1.10,2013-05-02 00:40:00,
2013-05-01 20:55:00,56.3,53.0,30.30,ESE,103,7.0,11.0,87,0.00,,,0.00,weatherlink.com 1.10,2013-05-02 00:55:00,
2013-05-01 21:10:00,56.2,52.0,30.30,East,93,3.0,10.0,87,0.00,,,0.00,weatherlink.com 1.10,2013-05-02 01:10:00,
2013-05-01 21:25:00,56.1,52.0,30.31,East,92,3.0,11.0,87,0.00,,,0.00,weatherlink.com 1.10,2013-05-02 01:25:00,
2013-05-01 21:40:00,56.2,52.0,30.31,East,97,3.0,11.0,87,0.00,,,0.00,weatherlink.com 1.10,2013-05-02 01:40:00,
2013-05-01 21:55:00,56.2,52.0,30.31,East,98,6.0,10.0,87,0.00,,,0.00,weatherlink.com 1.10,2013-05-02 01:55:00,
2013-05-01 22:10:00,56.2,52.0,30.32,East,98,6.0,8.0,87,0.00,,,0.00,weatherlink.com 1.10,2013-05-02 02:10:00,
2013-05-01 22:25:00,56.1,53.0,30.33,East,101,2.0,8.0,88,0.00,,,0.00,weatherlink.com 1.10,2013-05-02 02:25:00,
2013-05-01 22:40:00,56.0,52.0,30.33,ESE,115,2.0,8.0,87,0.00,,,0.00,weatherlink.com 1.10,2013-05-02 02:40:00,
2013-05-01 22:55:00,56.1,52.0,30.33,East,96,7.0,9.0,87,0.00,,,0.00,weatherlink.com 1.10,2013-05-02 02:55:00,
2013-05-01 23:10:00,56.0,52.0,30.33,ESE,111,5.0,11.0,87,0.00,,,0.00,weatherlink.com 1.10,2013-05-02 03:10:00,
2013-05-01 23:25:00,55.9,52.0,30.33,East,94,8.0,10.0,87,0.00,,,0.00,weatherlink.com 1.10,2013-05-02 03:25:00,
2013-05-01 23:40:00,55.7,52.0,30.33,East,87,2.0,10.0,87,0.00,,,0.00,weatherlink.com 1.10,2013-05-02 03:40:00,
2013-05-01 23:55:00,55.6,52.0,30.32,ESE,103,9.0,9.0,88,0.00,,,0.00,weatherlink.com 1.10,2013-05-02 03:55:00,